Terminal Aerodrome Forecast
Issued by NWS

Home | Current Version | Previous Version | Text Only | Print | Product List | Glossary On
Versions: 1 2 3 4 5 6 7 8 9 10 11 12 13 14 15 16 17 18 19 20 21 22 23 24 25 26 27 28
609
FTUS43 KDLH 220226 AAA
TAFHYR
TAF AMD
KHYR 220226Z 2202/2224 04003KT P6SM OVC006
      TEMPO 2202/2204 1SM -DZ BR OVC003
     FM220400 00000KT 1/2SM -DZ FG VV001
     FM221600 35002KT 3/4SM BR OVC003
     FM221900 30002KT 4SM BR OVC007=

USA.gov is the U.S. government's official web portal to all federal, state and local government web resources and services.